sensor_id;sensor_type;location;lat;lon;timestamp;temperature;humidity
4245;DHT22;2136;48.502;9.194;2023-04-25T00:00:58;10.60;69.50
4245;DHT22;2136;48.502;9.194;2023-04-25T00:03:25;10.60;69.20
4245;DHT22;2136;48.502;9.194;2023-04-25T00:05:52;10.60;69.20
4245;DHT22;2136;48.502;9.194;2023-04-25T00:08:22;10.60;69.10
4245;DHT22;2136;48.502;9.194;2023-04-25T00:10:48;10.60;68.10
4245;DHT22;2136;48.502;9.194;2023-04-25T00:13:15;10.60;67.50
4245;DHT22;2136;48.502;9.194;2023-04-25T00:15:43;10.60;67.50
4245;DHT22;2136;48.502;9.194;2023-04-25T00:18:13;10.60;67.50
4245;DHT22;2136;48.502;9.194;2023-04-25T00:20:40;10.60;67.70
4245;DHT22;2136;48.502;9.194;2023-04-25T00:23:12;10.60;68.20
4245;DHT22;2136;48.502;9.194;2023-04-25T00:25:43;10.60;68.70
4245;DHT22;2136;48.502;9.194;2023-04-25T00:28:09;10.60;68.60
4245;DHT22;2136;48.502;9.194;2023-04-25T00:30:36;10.60;68.70
4245;DHT22;2136;48.502;9.194;2023-04-25T00:33:03;10.60;69.00
4245;DHT22;2136;48.502;9.194;2023-04-25T00:35:32;10.60;69.50
4245;DHT22;2136;48.502;9.194;2023-04-25T00:37:59;10.60;70.00
4245;DHT22;2136;48.502;9.194;2023-04-25T00:40:26;10.70;69.60
4245;DHT22;2136;48.502;9.194;2023-04-25T00:42:53;10.60;69.00
4245;DHT22;2136;48.502;9.194;2023-04-25T00:45:20;10.60;69.00
4245;DHT22;2136;48.502;9.194;2023-04-25T00:47:47;10.80;69.50
4245;DHT22;2136;48.502;9.194;2023-04-25T00:50:14;10.70;69.90
4245;DHT22;2136;48.502;9.194;2023-04-25T00:52:44;10.70;70.40
4245;DHT22;2136;48.502;9.194;2023-04-25T00:55:11;10.70;70.80
4245;DHT22;2136;48.502;9.194;2023-04-25T00:57:39;10.70;70.70
4245;DHT22;2136;48.502;9.194;2023-04-25T01:00:08;10.70;70.80
4245;DHT22;2136;48.502;9.194;2023-04-25T01:02:37;10.70;70.10
4245;DHT22;2136;48.502;9.194;2023-04-25T01:05:04;10.70;69.70
4245;DHT22;2136;48.502;9.194;2023-04-25T01:07:31;10.70;69.40
4245;DHT22;2136;48.502;9.194;2023-04-25T01:10:00;10.80;69.30
4245;DHT22;2136;48.502;9.194;2023-04-25T01:12:27;10.70;69.00
4245;DHT22;2136;48.502;9.194;2023-04-25T01:14:55;10.70;68.90
4245;DHT22;2136;48.502;9.194;2023-04-25T01:17:22;10.70;68.70
4245;DHT22;2136;48.502;9.194;2023-04-25T01:19:49;10.60;68.70
4245;DHT22;2136;48.502;9.194;2023-04-25T01:22:18;10.60;69.40
4245;DHT22;2136;48.502;9.194;2023-04-25T01:24:46;10.60;69.00
4245;DHT22;2136;48.502;9.194;2023-04-25T01:27:13;10.60;69.90
4245;DHT22;2136;48.502;9.194;2023-04-25T01:29:40;10.60;70.70
4245;DHT22;2136;48.502;9.194;2023-04-25T01:32:07;10.60;71.50
4245;DHT22;2136;48.502;9.194;2023-04-25T01:34:35;10.60;71.80
4245;DHT22;2136;48.502;9.194;2023-04-25T01:37:01;10.60;71.00
4245;DHT22;2136;48.502;9.194;2023-04-25T01:39:30;10.70;70.50
4245;DHT22;2136;48.502;9.194;2023-04-25T01:41:58;10.60;69.80
4245;DHT22;2136;48.502;9.194;2023-04-25T01:44:25;10.60;69.60
4245;DHT22;2136;48.502;9.194;2023-04-25T01:46:52;10.60;69.30
4245;DHT22;2136;48.502;9.194;2023-04-25T01:49:19;10.60;69.00
4245;DHT22;2136;48.502;9.194;2023-04-25T01:51:46;10.60;68.80
4245;DHT22;2136;48.502;9.194;2023-04-25T01:54:13;10.60;68.70
4245;DHT22;2136;48.502;9.194;2023-04-25T01:56:41;10.70;69.00
4245;DHT22;2136;48.502;9.194;2023-04-25T01:59:08;10.60;68.90
4245;DHT22;2136;48.502;9.194;2023-04-25T02:01:35;10.60;68.80
4245;DHT22;2136;48.502;9.194;2023-04-25T02:04:02;10.60;68.80
4245;DHT22;2136;48.502;9.194;2023-04-25T02:06:28;10.70;68.90
4245;DHT22;2136;48.502;9.194;2023-04-25T02:08:56;10.50;68.70
4245;DHT22;2136;48.502;9.194;2023-04-25T02:11:23;10.50;68.90
4245;DHT22;2136;48.502;9.194;2023-04-25T02:13:51;10.50;70.20
4245;DHT22;2136;48.502;9.194;2023-04-25T02:16:18;10.60;70.10
4245;DHT22;2136;48.502;9.194;2023-04-25T02:18:45;10.40;70.30
4245;DHT22;2136;48.502;9.194;2023-04-25T02:21:12;10.40;70.20
4245;DHT22;2136;48.502;9.194;2023-04-25T02:23:39;10.40;70.40
4245;DHT22;2136;48.502;9.194;2023-04-25T02:26:06;10.40;71.20
4245;DHT22;2136;48.502;9.194;2023-04-25T02:28:33;10.50;70.40
4245;DHT22;2136;48.502;9.194;2023-04-25T02:31:01;10.50;70.20
4245;DHT22;2136;48.502;9.194;2023-04-25T02:33:28;10.40;69.90
4245;DHT22;2136;48.502;9.194;2023-04-25T02:35:55;10.40;69.90
4245;DHT22;2136;48.502;9.194;2023-04-25T02:38:22;10.40;70.20
4245;DHT22;2136;48.502;9.194;2023-04-25T02:40:48;10.50;70.30
4245;DHT22;2136;48.502;9.194;2023-04-25T02:43:15;10.30;69.90
4245;DHT22;2136;48.502;9.194;2023-04-25T02:45:42;10.30;69.90
4245;DHT22;2136;48.502;9.194;2023-04-25T02:48:10;10.30;69.90
4245;DHT22;2136;48.502;9.194;2023-04-25T02:50:37;10.20;69.90
4245;DHT22;2136;48.502;9.194;2023-04-25T02:53:04;10.20;69.70
4245;DHT22;2136;48.502;9.194;2023-04-25T02:55:31;10.30;69.90
4245;DHT22;2136;48.502;9.194;2023-04-25T02:57:57;10.20;69.90
4245;DHT22;2136;48.502;9.194;2023-04-25T03:00:25;10.10;70.00
4245;DHT22;2136;48.502;9.194;2023-04-25T03:02:51;10.10;70.20
4245;DHT22;2136;48.502;9.194;2023-04-25T03:05:20;10.10;70.10
4245;DHT22;2136;48.502;9.194;2023-04-25T03:07:46;10.10;70.30
4245;DHT22;2136;48.502;9.194;2023-04-25T03:10:13;10.00;70.20
4245;DHT22;2136;48.502;9.194;2023-04-25T03:12:40;10.10;70.30
4245;DHT22;2136;48.502;9.194;2023-04-25T03:15:07;10.00;70.30
4245;DHT22;2136;48.502;9.194;2023-04-25T03:17:34;9.90;71.60
4245;DHT22;2136;48.502;9.194;2023-04-25T03:20:01;9.80;71.60
4245;DHT22;2136;48.502;9.194;2023-04-25T03:22:32;9.80;71.90
4245;DHT22;2136;48.502;9.194;2023-04-25T03:24:59;9.80;71.60
4245;DHT22;2136;48.502;9.194;2023-04-25T03:27:25;9.80;71.70
4245;DHT22;2136;48.502;9.194;2023-04-25T03:29:52;9.80;71.70
4245;DHT22;2136;48.502;9.194;2023-04-25T03:32:19;10.00;70.60
4245;DHT22;2136;48.502;9.194;2023-04-25T03:34:46;9.90;72.00
4245;DHT22;2136;48.502;9.194;2023-04-25T03:37:13;10.00;70.90
4245;DHT22;2136;48.502;9.194;2023-04-25T03:39:41;9.90;72.10
4245;DHT22;2136;48.502;9.194;2023-04-25T03:42:08;10.00;71.50
4245;DHT22;2136;48.502;9.194;2023-04-25T03:44:35;10.10;72.10
4245;DHT22;2136;48.502;9.194;2023-04-25T03:47:02;10.10;73.40
4245;DHT22;2136;48.502;9.194;2023-04-25T03:49:28;10.00;72.90
4245;DHT22;2136;48.502;9.194;2023-04-25T03:51:55;10.00;73.20
4245;DHT22;2136;48.502;9.194;2023-04-25T03:54:22;10.00;73.20
4245;DHT22;2136;48.502;9.194;2023-04-25T03:56:50;10.00;73.80
4245;DHT22;2136;48.502;9.194;2023-04-25T03:59:17;10.00;73.90
4245;DHT22;2136;48.502;9.194;2023-04-25T04:01:44;10.00;73.70
4245;DHT22;2136;48.502;9.194;2023-04-25T04:04:11;10.00;73.60
4245;DHT22;2136;48.502;9.194;2023-04-25T04:06:38;10.00;73.60
4245;DHT22;2136;48.502;9.194;2023-04-25T04:09:05;10.00;73.80
4245;DHT22;2136;48.502;9.194;2023-04-25T04:11:36;10.00;73.80
4245;DHT22;2136;48.502;9.194;2023-04-25T04:14:05;10.00;73.80
4245;DHT22;2136;48.502;9.194;2023-04-25T04:16:32;10.00;74.50
4245;DHT22;2136;48.502;9.194;2023-04-25T04:18:59;10.00;75.40
4245;DHT22;2136;48.502;9.194;2023-04-25T04:21:25;10.00;75.10
4245;DHT22;2136;48.502;9.194;2023-04-25T04:23:52;10.10;75.60
4245;DHT22;2136;48.502;9.194;2023-04-25T04:26:20;10.30;74.20
4245;DHT22;2136;48.502;9.194;2023-04-25T04:28:48;10.20;73.20
4245;DHT22;2136;48.502;9.194;2023-04-25T04:31:17;10.30;72.70
4245;DHT22;2136;48.502;9.194;2023-04-25T04:33:45;10.30;71.90
4245;DHT22;2136;48.502;9.194;2023-04-25T04:36:12;10.20;71.50
4245;DHT22;2136;48.502;9.194;2023-04-25T04:38:39;10.20;72.00
4245;DHT22;2136;48.502;9.194;2023-04-25T04:41:08;10.20;73.50
4245;DHT22;2136;48.502;9.194;2023-04-25T04:43:34;10.10;74.20
4245;DHT22;2136;48.502;9.194;2023-04-25T04:46:02;10.20;74.30
4245;DHT22;2136;48.502;9.194;2023-04-25T04:48:32;10.20;73.30
4245;DHT22;2136;48.502;9.194;2023-04-25T04:50:59;10.30;72.30
4245;DHT22;2136;48.502;9.194;2023-04-25T04:53:26;10.10;71.50
4245;DHT22;2136;48.502;9.194;2023-04-25T04:55:53;10.10;71.70
4245;DHT22;2136;48.502;9.194;2023-04-25T04:58:21;10.10;72.20
4245;DHT22;2136;48.502;9.194;2023-04-25T05:00:48;10.10;72.50
4245;DHT22;2136;48.502;9.194;2023-04-25T05:03:15;10.10;72.40
4245;DHT22;2136;48.502;9.194;2023-04-25T05:05:43;9.90;74.00
4245;DHT22;2136;48.502;9.194;2023-04-25T05:08:11;10.00;74.10
4245;DHT22;2136;48.502;9.194;2023-04-25T05:10:38;9.90;75.50
4245;DHT22;2136;48.502;9.194;2023-04-25T05:13:05;10.10;74.40
4245;DHT22;2136;48.502;9.194;2023-04-25T05:15:31;10.00;74.10
4245;DHT22;2136;48.502;9.194;2023-04-25T05:17:58;10.10;74.50
4245;DHT22;2136;48.502;9.194;2023-04-25T05:20:25;10.10;74.50
4245;DHT22;2136;48.502;9.194;2023-04-25T05:22:54;10.10;74.40
4245;DHT22;2136;48.502;9.194;2023-04-25T05:25:20;10.20;74.10
4245;DHT22;2136;48.502;9.194;2023-04-25T05:27:47;10.20;73.60
4245;DHT22;2136;48.502;9.194;2023-04-25T05:30:14;10.30;73.80
4245;DHT22;2136;48.502;9.194;2023-04-25T05:32:41;10.20;74.10
4245;DHT22;2136;48.502;9.194;2023-04-25T05:35:08;10.20;74.10
4245;DHT22;2136;48.502;9.194;2023-04-25T05:37:35;10.30;74.20
4245;DHT22;2136;48.502;9.194;2023-04-25T05:40:05;10.30;74.40
4245;DHT22;2136;48.502;9.194;2023-04-25T05:42:32;10.40;75.00
4245;DHT22;2136;48.502;9.194;2023-04-25T05:44:59;10.40;74.50
4245;DHT22;2136;48.502;9.194;2023-04-25T05:47:26;10.50;74.40
4245;DHT22;2136;48.502;9.194;2023-04-25T05:49:53;10.60;73.70
4245;DHT22;2136;48.502;9.194;2023-04-25T05:52:19;10.60;73.30
4245;DHT22;2136;48.502;9.194;2023-04-25T05:54:46;10.70;72.60
4245;DHT22;2136;48.502;9.194;2023-04-25T05:57:20;10.80;72.00
4245;DHT22;2136;48.502;9.194;2023-04-25T05:59:47;10.90;71.30
4245;DHT22;2136;48.502;9.194;2023-04-25T06:02:14;10.90;70.30
4245;DHT22;2136;48.502;9.194;2023-04-25T06:04:41;11.00;70.30
4245;DHT22;2136;48.502;9.194;2023-04-25T06:07:08;11.00;70.30
4245;DHT22;2136;48.502;9.194;2023-04-25T06:09:35;11.20;70.20
4245;DHT22;2136;48.502;9.194;2023-04-25T06:12:02;11.20;70.00
4245;DHT22;2136;48.502;9.194;2023-04-25T06:14:30;11.30;69.80
4245;DHT22;2136;48.502;9.194;2023-04-25T06:16:57;11.50;69.30
4245;DHT22;2136;48.502;9.194;2023-04-25T06:19:24;11.60;68.10
4245;DHT22;2136;48.502;9.194;2023-04-25T06:21:51;11.60;67.10
4245;DHT22;2136;48.502;9.194;2023-04-25T06:24:18;11.60;66.20
4245;DHT22;2136;48.502;9.194;2023-04-25T06:26:45;11.60;65.70
4245;DHT22;2136;48.502;9.194;2023-04-25T06:29:13;11.60;65.00
4245;DHT22;2136;48.502;9.194;2023-04-25T06:31:41;11.50;64.30
4245;DHT22;2136;48.502;9.194;2023-04-25T06:34:08;11.50;64.10
4245;DHT22;2136;48.502;9.194;2023-04-25T06:36:34;11.40;64.00
4245;DHT22;2136;48.502;9.194;2023-04-25T06:39:01;11.40;64.10
4245;DHT22;2136;48.502;9.194;2023-04-25T06:41:28;11.30;64.30
4245;DHT22;2136;48.502;9.194;2023-04-25T06:43:55;11.30;64.00
4245;DHT22;2136;48.502;9.194;2023-04-25T06:46:22;11.30;64.00
4245;DHT22;2136;48.502;9.194;2023-04-25T06:48:50;11.30;64.40
4245;DHT22;2136;48.502;9.194;2023-04-25T06:51:17;11.30;64.30
4245;DHT22;2136;48.502;9.194;2023-04-25T06:53:44;11.20;64.20
4245;DHT22;2136;48.502;9.194;2023-04-25T06:56:11;11.30;64.20
4245;DHT22;2136;48.502;9.194;2023-04-25T06:58:37;11.50;64.40
4245;DHT22;2136;48.502;9.194;2023-04-25T07:01:05;11.30;64.40
4245;DHT22;2136;48.502;9.194;2023-04-25T07:03:31;11.30;64.20
4245;DHT22;2136;48.502;9.194;2023-04-25T07:06:00;11.30;64.10
4245;DHT22;2136;48.502;9.194;2023-04-25T07:08:26;11.30;64.30
4245;DHT22;2136;48.502;9.194;2023-04-25T07:10:55;11.30;64.60
4245;DHT22;2136;48.502;9.194;2023-04-25T07:13:21;11.40;64.60
4245;DHT22;2136;48.502;9.194;2023-04-25T07:15:48;11.40;64.30
4245;DHT22;2136;48.502;9.194;2023-04-25T07:18:15;11.30;64.50
4245;DHT22;2136;48.502;9.194;2023-04-25T07:20:42;11.30;65.00
4245;DHT22;2136;48.502;9.194;2023-04-25T07:23:10;11.40;65.30
4245;DHT22;2136;48.502;9.194;2023-04-25T07:25:37;11.50;66.50
4245;DHT22;2136;48.502;9.194;2023-04-25T07:28:04;11.30;67.50
4245;DHT22;2136;48.502;9.194;2023-04-25T07:30:31;11.30;68.80
4245;DHT22;2136;48.502;9.194;2023-04-25T07:32:59;11.20;70.00
4245;DHT22;2136;48.502;9.194;2023-04-25T07:35:26;11.30;71.50
4245;DHT22;2136;48.502;9.194;2023-04-25T07:37:52;11.20;73.00
4245;DHT22;2136;48.502;9.194;2023-04-25T07:40:21;11.30;74.30
4245;DHT22;2136;48.502;9.194;2023-04-25T07:42:48;11.40;74.80
4245;DHT22;2136;48.502;9.194;2023-04-25T07:45:14;11.40;74.30
4245;DHT22;2136;48.502;9.194;2023-04-25T07:47:42;11.40;74.10
4245;DHT22;2136;48.502;9.194;2023-04-25T07:50:09;11.40;74.10
4245;DHT22;2136;48.502;9.194;2023-04-25T07:52:36;11.30;74.30
4245;DHT22;2136;48.502;9.194;2023-04-25T07:55:04;11.30;73.20
4245;DHT22;2136;48.502;9.194;2023-04-25T07:57:32;11.20;72.70
4245;DHT22;2136;48.502;9.194;2023-04-25T07:59:59;11.20;73.20
4245;DHT22;2136;48.502;9.194;2023-04-25T08:02:25;11.10;73.10
4245;DHT22;2136;48.502;9.194;2023-04-25T08:04:53;11.00;73.50
4245;DHT22;2136;48.502;9.194;2023-04-25T08:07:20;11.00;74.10
4245;DHT22;2136;48.502;9.194;2023-04-25T08:09:47;11.00;74.80
4245;DHT22;2136;48.502;9.194;2023-04-25T08:12:14;10.90;76.10
4245;DHT22;2136;48.502;9.194;2023-04-25T08:14:42;10.90;76.60
4245;DHT22;2136;48.502;9.194;2023-04-25T08:17:09;10.90;77.70
4245;DHT22;2136;48.502;9.194;2023-04-25T08:19:36;10.80;78.80
4245;DHT22;2136;48.502;9.194;2023-04-25T08:22:03;10.80;79.50
4245;DHT22;2136;48.502;9.194;2023-04-25T08:24:30;10.80;80.40
4245;DHT22;2136;48.502;9.194;2023-04-25T08:26:57;10.90;81.30
4245;DHT22;2136;48.502;9.194;2023-04-25T08:29:24;10.90;81.70
4245;DHT22;2136;48.502;9.194;2023-04-25T08:31:52;10.90;82.20
4245;DHT22;2136;48.502;9.194;2023-04-25T08:34:19;10.90;81.60
4245;DHT22;2136;48.502;9.194;2023-04-25T08:36:46;10.90;81.60
4245;DHT22;2136;48.502;9.194;2023-04-25T08:39:13;10.90;81.60
4245;DHT22;2136;48.502;9.194;2023-04-25T08:41:40;10.90;81.90
4245;DHT22;2136;48.502;9.194;2023-04-25T08:44:10;10.90;82.20
4245;DHT22;2136;48.502;9.194;2023-04-25T08:46:38;10.90;82.40
4245;DHT22;2136;48.502;9.194;2023-04-25T08:49:07;10.80;82.70
4245;DHT22;2136;48.502;9.194;2023-04-25T08:51:37;10.80;83.60
4245;DHT22;2136;48.502;9.194;2023-04-25T08:54:10;10.80;84.70
4245;DHT22;2136;48.502;9.194;2023-04-25T08:56:38;10.80;85.70
4245;DHT22;2136;48.502;9.194;2023-04-25T08:59:07;10.70;85.40
4245;DHT22;2136;48.502;9.194;2023-04-25T09:01:34;10.70;85.30
4245;DHT22;2136;48.502;9.194;2023-04-25T09:04:02;10.60;86.10
4245;DHT22;2136;48.502;9.194;2023-04-25T09:06:30;10.60;85.70
4245;DHT22;2136;48.502;9.194;2023-04-25T09:09:02;10.60;85.30
4245;DHT22;2136;48.502;9.194;2023-04-25T09:11:30;10.60;85.60
4245;DHT22;2136;48.502;9.194;2023-04-25T09:14:11;10.60;86.20
4245;DHT22;2136;48.502;9.194;2023-04-25T09:17:00;10.50;87.60
4245;DHT22;2136;48.502;9.194;2023-04-25T09:19:29;10.50;89.10
4245;DHT22;2136;48.502;9.194;2023-04-25T09:21:58;10.40;89.50
4245;DHT22;2136;48.502;9.194;2023-04-25T09:24:33;10.40;89.50
4245;DHT22;2136;48.502;9.194;2023-04-25T09:27:01;10.40;90.30
4245;DHT22;2136;48.502;9.194;2023-04-25T09:29:29;10.40;90.20
4245;DHT22;2136;48.502;9.194;2023-04-25T09:32:11;10.40;90.30
4245;DHT22;2136;48.502;9.194;2023-04-25T09:34:39;10.50;90.80
4245;DHT22;2136;48.502;9.194;2023-04-25T09:37:10;10.50;90.80
4245;DHT22;2136;48.502;9.194;2023-04-25T09:39:37;10.50;90.70
4245;DHT22;2136;48.502;9.194;2023-04-25T09:42:05;10.50;90.30
4245;DHT22;2136;48.502;9.194;2023-04-25T09:44:32;10.50;89.10
4245;DHT22;2136;48.502;9.194;2023-04-25T09:46:59;10.40;88.60
4245;DHT22;2136;48.502;9.194;2023-04-25T09:49:26;10.40;89.30
4245;DHT22;2136;48.502;9.194;2023-04-25T09:51:56;10.40;88.90
4245;DHT22;2136;48.502;9.194;2023-04-25T09:54:25;10.40;89.20
4245;DHT22;2136;48.502;9.194;2023-04-25T09:56:53;10.30;87.50
4245;DHT22;2136;48.502;9.194;2023-04-25T09:59:20;10.30;86.60
4245;DHT22;2136;48.502;9.194;2023-04-25T10:01:49;10.30;86.10
4245;DHT22;2136;48.502;9.194;2023-04-25T10:04:19;10.20;85.80
4245;DHT22;2136;48.502;9.194;2023-04-25T10:06:48;10.10;84.90
4245;DHT22;2136;48.502;9.194;2023-04-25T10:09:16;10.00;85.70
4245;DHT22;2136;48.502;9.194;2023-04-25T10:11:46;9.90;87.70
4245;DHT22;2136;48.502;9.194;2023-04-25T10:14:14;9.80;88.60
4245;DHT22;2136;48.502;9.194;2023-04-25T10:16:42;9.80;88.60
4245;DHT22;2136;48.502;9.194;2023-04-25T10:19:10;9.70;89.50
4245;DHT22;2136;48.502;9.194;2023-04-25T10:21:44;9.70;90.40
4245;DHT22;2136;48.502;9.194;2023-04-25T10:24:13;9.70;90.10
4245;DHT22;2136;48.502;9.194;2023-04-25T10:26:41;9.70;90.10
4245;DHT22;2136;48.502;9.194;2023-04-25T10:29:09;9.60;88.50
4245;DHT22;2136;48.502;9.194;2023-04-25T10:31:45;9.60;86.60
4245;DHT22;2136;48.502;9.194;2023-04-25T10:34:12;9.50;85.60
4245;DHT22;2136;48.502;9.194;2023-04-25T10:36:39;9.40;86.00
4245;DHT22;2136;48.502;9.194;2023-04-25T10:39:07;9.30;86.30
4245;DHT22;2136;48.502;9.194;2023-04-25T10:41:46;9.30;87.00
4245;DHT22;2136;48.502;9.194;2023-04-25T10:44:15;9.30;87.10
4245;DHT22;2136;48.502;9.194;2023-04-25T10:46:44;9.30;85.10
4245;DHT22;2136;48.502;9.194;2023-04-25T10:49:28;9.30;86.40
4245;DHT22;2136;48.502;9.194;2023-04-25T10:52:11;9.30;87.10
4245;DHT22;2136;48.502;9.194;2023-04-25T10:54:41;9.30;87.40
4245;DHT22;2136;48.502;9.194;2023-04-25T10:57:26;9.30;85.70
4245;DHT22;2136;48.502;9.194;2023-04-25T10:59:58;9.30;86.00
4245;DHT22;2136;48.502;9.194;2023-04-25T11:02:26;9.40;85.80
4245;DHT22;2136;48.502;9.194;2023-04-25T11:04:54;9.50;86.90
4245;DHT22;2136;48.502;9.194;2023-04-25T11:07:29;9.50;85.90
4245;DHT22;2136;48.502;9.194;2023-04-25T11:10:01;9.60;85.40
4245;DHT22;2136;48.502;9.194;2023-04-25T11:12:30;9.60;84.80
4245;DHT22;2136;48.502;9.194;2023-04-25T11:15:02;9.70;83.20
4245;DHT22;2136;48.502;9.194;2023-04-25T11:17:30;9.70;80.40
4245;DHT22;2136;48.502;9.194;2023-04-25T11:19:57;9.70;79.60
4245;DHT22;2136;48.502;9.194;2023-04-25T11:22:24;9.60;78.60
4245;DHT22;2136;48.502;9.194;2023-04-25T11:24:52;9.60;80.00
4245;DHT22;2136;48.502;9.194;2023-04-25T11:27:19;9.60;80.00
4245;DHT22;2136;48.502;9.194;2023-04-25T11:29:47;9.50;79.80
4245;DHT22;2136;48.502;9.194;2023-04-25T11:32:17;9.50;79.30
4245;DHT22;2136;48.502;9.194;2023-04-25T11:34:44;9.50;78.40
4245;DHT22;2136;48.502;9.194;2023-04-25T11:37:11;9.40;77.70
4245;DHT22;2136;48.502;9.194;2023-04-25T11:39:43;9.40;78.20
4245;DHT22;2136;48.502;9.194;2023-04-25T11:42:10;9.40;78.50
4245;DHT22;2136;48.502;9.194;2023-04-25T11:44:38;9.40;79.20
4245;DHT22;2136;48.502;9.194;2023-04-25T11:47:05;9.40;79.70
4245;DHT22;2136;48.502;9.194;2023-04-25T11:49:33;9.50;79.70
4245;DHT22;2136;48.502;9.194;2023-04-25T11:52:01;9.50;80.00
4245;DHT22;2136;48.502;9.194;2023-04-25T11:54:28;9.60;80.60
4245;DHT22;2136;48.502;9.194;2023-04-25T11:56:55;9.60;80.00
4245;DHT22;2136;48.502;9.194;2023-04-25T11:59:24;9.50;79.30
4245;DHT22;2136;48.502;9.194;2023-04-25T12:01:51;9.60;80.30
4245;DHT22;2136;48.502;9.194;2023-04-25T12:04:20;9.60;81.60
4245;DHT22;2136;48.502;9.194;2023-04-25T12:06:49;9.90;82.80
4245;DHT22;2136;48.502;9.194;2023-04-25T12:09:18;10.00;81.50
4245;DHT22;2136;48.502;9.194;2023-04-25T12:11:48;10.20;81.60
4245;DHT22;2136;48.502;9.194;2023-04-25T12:14:21;10.50;82.80
4245;DHT22;2136;48.502;9.194;2023-04-25T12:16:49;10.80;82.00
4245;DHT22;2136;48.502;9.194;2023-04-25T12:19:19;11.10;81.50
4245;DHT22;2136;48.502;9.194;2023-04-25T12:21:48;11.30;77.40
4245;DHT22;2136;48.502;9.194;2023-04-25T12:24:17;11.40;75.30
4245;DHT22;2136;48.502;9.194;2023-04-25T12:26:49;11.60;75.00
4245;DHT22;2136;48.502;9.194;2023-04-25T12:29:17;11.60;73.30
4245;DHT22;2136;48.502;9.194;2023-04-25T12:31:44;11.50;71.60
4245;DHT22;2136;48.502;9.194;2023-04-25T12:34:11;11.40;71.10
4245;DHT22;2136;48.502;9.194;2023-04-25T12:36:38;11.40;70.70
4245;DHT22;2136;48.502;9.194;2023-04-25T12:39:07;11.40;69.90
4245;DHT22;2136;48.502;9.194;2023-04-25T12:41:34;11.30;70.10
4245;DHT22;2136;48.502;9.194;2023-04-25T12:44:01;11.30;70.40
4245;DHT22;2136;48.502;9.194;2023-04-25T12:46:27;11.40;70.30
4245;DHT22;2136;48.502;9.194;2023-04-25T12:48:54;11.20;70.50
4245;DHT22;2136;48.502;9.194;2023-04-25T12:51:22;11.30;71.60
4245;DHT22;2136;48.502;9.194;2023-04-25T12:53:50;11.30;72.30
4245;DHT22;2136;48.502;9.194;2023-04-25T12:56:19;11.40;73.10
4245;DHT22;2136;48.502;9.194;2023-04-25T12:58:45;11.50;73.60
4245;DHT22;2136;48.502;9.194;2023-04-25T13:01:13;11.70;74.40
4245;DHT22;2136;48.502;9.194;2023-04-25T13:03:40;11.80;74.30
4245;DHT22;2136;48.502;9.194;2023-04-25T13:06:07;11.90;73.90
4245;DHT22;2136;48.502;9.194;2023-04-25T13:08:34;11.90;73.00
4245;DHT22;2136;48.502;9.194;2023-04-25T13:11:02;11.90;72.50
4245;DHT22;2136;48.502;9.194;2023-04-25T13:13:31;12.00;72.70
4245;DHT22;2136;48.502;9.194;2023-04-25T13:16:00;12.00;73.30
4245;DHT22;2136;48.502;9.194;2023-04-25T13:18:27;12.00;74.50
4245;DHT22;2136;48.502;9.194;2023-04-25T13:20:54;12.10;74.30
4245;DHT22;2136;48.502;9.194;2023-04-25T13:23:21;12.20;73.60
4245;DHT22;2136;48.502;9.194;2023-04-25T13:25:48;12.30;72.80
4245;DHT22;2136;48.502;9.194;2023-04-25T13:28:15;12.40;71.50
4245;DHT22;2136;48.502;9.194;2023-04-25T13:30:44;12.50;71.20
4245;DHT22;2136;48.502;9.194;2023-04-25T13:33:11;12.50;71.70
4245;DHT22;2136;48.502;9.194;2023-04-25T13:36:47;12.60;70.80
4245;DHT22;2136;48.502;9.194;2023-04-25T13:39:14;12.60;70.80
4245;DHT22;2136;48.502;9.194;2023-04-25T13:41:41;12.70;71.20
4245;DHT22;2136;48.502;9.194;2023-04-25T13:44:07;12.70;71.40
4245;DHT22;2136;48.502;9.194;2023-04-25T13:46:34;12.70;70.90
4245;DHT22;2136;48.502;9.194;2023-04-25T13:49:02;12.60;70.20
4245;DHT22;2136;48.502;9.194;2023-04-25T13:51:29;12.70;69.30
4245;DHT22;2136;48.502;9.194;2023-04-25T13:53:57;12.70;69.20
4245;DHT22;2136;48.502;9.194;2023-04-25T13:56:24;12.70;69.10
4245;DHT22;2136;48.502;9.194;2023-04-25T13:58:51;12.80;69.00
4245;DHT22;2136;48.502;9.194;2023-04-25T14:01:18;12.80;68.60
4245;DHT22;2136;48.502;9.194;2023-04-25T14:03:46;13.10;69.80
4245;DHT22;2136;48.502;9.194;2023-04-25T14:06:13;13.60;70.30
4245;DHT22;2136;48.502;9.194;2023-04-25T14:08:46;14.60;68.30
4245;DHT22;2136;48.502;9.194;2023-04-25T14:11:15;14.90;66.20
4245;DHT22;2136;48.502;9.194;2023-04-25T14:13:43;14.90;65.50
4245;DHT22;2136;48.502;9.194;2023-04-25T14:16:10;14.80;65.00
4245;DHT22;2136;48.502;9.194;2023-04-25T14:18:37;14.70;64.40
4245;DHT22;2136;48.502;9.194;2023-04-25T14:21:04;14.60;63.90
4245;DHT22;2136;48.502;9.194;2023-04-25T14:23:31;14.70;63.80
4245;DHT22;2136;48.502;9.194;2023-04-25T14:25:58;14.70;62.70
4245;DHT22;2136;48.502;9.194;2023-04-25T14:28:26;14.70;61.10
4245;DHT22;2136;48.502;9.194;2023-04-25T14:30:53;14.60;60.60
4245;DHT22;2136;48.502;9.194;2023-04-25T14:33:20;14.50;60.30
4245;DHT22;2136;48.502;9.194;2023-04-25T14:35:47;14.40;60.20
4245;DHT22;2136;48.502;9.194;2023-04-25T14:38:13;14.40;60.60
4245;DHT22;2136;48.502;9.194;2023-04-25T14:40:41;14.50;61.20
4245;DHT22;2136;48.502;9.194;2023-04-25T14:43:08;14.60;61.30
4245;DHT22;2136;48.502;9.194;2023-04-25T14:45:36;14.60;60.60
4245;DHT22;2136;48.502;9.194;2023-04-25T14:48:03;14.60;60.00
4245;DHT22;2136;48.502;9.194;2023-04-25T14:50:30;14.60;59.70
4245;DHT22;2136;48.502;9.194;2023-04-25T14:52:57;14.50;59.30
4245;DHT22;2136;48.502;9.194;2023-04-25T14:55:26;14.30;59.40
4245;DHT22;2136;48.502;9.194;2023-04-25T14:57:53;14.10;59.30
4245;DHT22;2136;48.502;9.194;2023-04-25T15:00:20;14.00;59.40
4245;DHT22;2136;48.502;9.194;2023-04-25T15:02:49;13.90;60.20
4245;DHT22;2136;48.502;9.194;2023-04-25T15:05:16;13.90;60.60
4245;DHT22;2136;48.502;9.194;2023-04-25T15:07:43;13.80;60.80
4245;DHT22;2136;48.502;9.194;2023-04-25T15:10:10;13.70;61.60
4245;DHT22;2136;48.502;9.194;2023-04-25T15:12:39;13.80;63.30
4245;DHT22;2136;48.502;9.194;2023-04-25T15:15:07;13.80;63.60
4245;DHT22;2136;48.502;9.194;2023-04-25T15:17:36;13.70;63.20
4245;DHT22;2136;48.502;9.194;2023-04-25T15:20:06;13.70;63.80
4245;DHT22;2136;48.502;9.194;2023-04-25T15:22:35;13.50;64.90
4245;DHT22;2136;48.502;9.194;2023-04-25T15:25:02;13.50;63.70
4245;DHT22;2136;48.502;9.194;2023-04-25T15:27:29;13.40;63.60
4245;DHT22;2136;48.502;9.194;2023-04-25T15:29:56;13.30;62.10
4245;DHT22;2136;48.502;9.194;2023-04-25T15:32:23;13.20;62.10
4245;DHT22;2136;48.502;9.194;2023-04-25T15:34:50;13.00;62.10
4245;DHT22;2136;48.502;9.194;2023-04-25T15:37:18;13.00;62.70
4245;DHT22;2136;48.502;9.194;2023-04-25T15:39:45;12.90;62.30
4245;DHT22;2136;48.502;9.194;2023-04-25T15:42:12;13.00;63.60
4245;DHT22;2136;48.502;9.194;2023-04-25T15:44:39;13.10;63.40
4245;DHT22;2136;48.502;9.194;2023-04-25T15:47:06;13.10;62.10
4245;DHT22;2136;48.502;9.194;2023-04-25T15:49:33;13.10;62.00
4245;DHT22;2136;48.502;9.194;2023-04-25T15:51:59;13.10;61.40
4245;DHT22;2136;48.502;9.194;2023-04-25T15:54:28;13.10;61.60
4245;DHT22;2136;48.502;9.194;2023-04-25T15:56:54;13.00;61.50
4245;DHT22;2136;48.502;9.194;2023-04-25T15:59:21;12.90;61.60
4245;DHT22;2136;48.502;9.194;2023-04-25T16:01:48;12.90;62.10
4245;DHT22;2136;48.502;9.194;2023-04-25T16:04:15;12.80;61.70
4245;DHT22;2136;48.502;9.194;2023-04-25T16:06:42;12.80;62.30
4245;DHT22;2136;48.502;9.194;2023-04-25T16:09:09;12.80;61.50